Terminal Aerodrome Forecast
Issued by NWS

Home | Current Version | Previous Version | Text Only | Print | Product List | Glossary On
Versions: 1 2 3 4 5 6 7 8 9 10 11 12 13 14 15 16 17 18 19 20 21 22 23 24 25 26 27 28
000
FTUS43 KDDC 261056 AAA
TAFHYS
TAF AMD
KHYS 261056Z 2611/2706 VRB05KT 2SM BR OVC009
     FM261300 VRB03KT 3SM BR FEW045
     FM261400 13005KT P6SM FEW035=

USA.gov is the U.S. government's official web portal to all federal, state and local government web resources and services.